Погода Замятинона 2 недели

Тверская область, Россия

19 июня-02 июля
  • 19июня
    Сегодня
    +14°
    +25°
    Облачно с прояснениями
    ВремяПогодаТемператураВлажностьДавлениеВетер, м/сВероятность осадков
    00:00Ясно и безоблачно+16°C86 %742 мм3.0 м/с2 %
    03:00Ясно и безоблачно+14°C92 %742 мм2.8 м/с2 %
    06:00Ясно и безоблачно+15°C89 %743 мм2.5 м/с2 %
    09:00Облачно с прояснениями+21°C75 %743 мм2.1 м/с2 %
    12:00Облачно с прояснениями+23°C59 %743 мм3.3 м/с25 %
    15:00Облачно с прояснениями+24°C53 %742 мм4.3 м/с6 %
    18:00Облачно с прояснениями+23°C61 %740 мм3.4 м/с3 %
    21:00Облачно с прояснениями+20°C79 %739 мм5.1 м/с14 %
  • 20июня
    Четверг
    +10°
    +19°
    Пасмурно, ливень
    ВремяПогодаТемператураВлажностьДавлениеВетер, м/сВероятность осадков
    00:00Облачно с прояснениями, небольшой дождь+18°C90 %738 мм5.5 м/с78 %
    03:00Пасмурно, сплошная облачность+18°C93 %737 мм4.4 м/с11 %
    06:00Пасмурно, дождь+18°C94 %736 мм2.5 м/с78 %
    09:00Пасмурно, дождь+13°C93 %734 мм5.2 м/с98 %
    12:00Пасмурно, дождь+13°C89 %736 мм5.7 м/с98 %
    15:00Пасмурно, ливень+16°C69 %737 мм6.8 м/с80 %
    18:00Практически безоблачно+18°C60 %738 мм5.3 м/с28 %
    21:00Ясно и безоблачно+16°C57 %739 мм4.5 м/с3 %
  • 21июня
    Пятница
    +12°
    +21°
    Практически безоблачно
    ВремяПогодаТемператураВлажностьДавлениеВетер, м/сВероятность осадков
    00:00Ясно и безоблачно+13°C61 %740 мм4.4 м/с2 %
    03:00Ясно и безоблачно+11°C65 %741 мм4.0 м/с2 %
    06:00Ясно и безоблачно+12°C74 %742 мм3.7 м/с2 %
    09:00Ясно и безоблачно+17°C71 %742 мм3.7 м/с2 %
    12:00Ясно и безоблачно+20°C57 %742 мм4.5 м/с2 %
    15:00Практически безоблачно+21°C51 %741 мм4.6 м/с2 %
    18:00Практически безоблачно+20°C55 %741 мм4.0 м/с2 %
    21:00Ясно и безоблачно+17°C71 %741 мм2.2 м/с2 %
  • 22июня
    Суббота
    +9°
    +22°
    Облачно с прояснениями
    ВремяПогодаТемператураВлажностьДавлениеВетер, м/сВероятность осадков
    00:00Ясно и безоблачно+14°C80 %741 мм2.6 м/с3 %
    03:00Практически безоблачно+13°C84 %741 мм3.1 м/с2 %
    06:00Ясно и безоблачно+14°C85 %741 мм2.7 м/с2 %
    09:00Ясно и безоблачно+19°C69 %742 мм2.1 м/с2 %
    12:00Практически безоблачно+21°C54 %742 мм4.0 м/с10 %
    15:00Облачно с прояснениями+21°C48 %742 мм3.7 м/с6 %
    18:00Практически безоблачно+21°C48 %741 мм2.5 м/с4 %
    21:00Практически безоблачно+17°C71 %742 мм2.1 м/с2 %
  • 23июня
    Воскресенье
    +10°
    +21°
    Облачно с прояснениями
    ВремяПогодаТемператураВлажностьДавлениеВетер, м/сВероятность осадков
    00:00Практически безоблачно+11°C82 %742 мм2.5 м/с4 %
    03:00Ясно и безоблачно+10°C86 %742 мм2.4 м/с13 %
    06:00Небольшая облачность+12°C81 %742 мм1.7 м/с24 %
    09:00Небольшая облачность+17°C61 %742 мм1.5 м/с38 %
    12:00Облачно с прояснениями+19°C49 %742 мм1.9 м/с42 %
    15:00Облачно с прояснениями+20°C45 %741 мм1.1 м/с47 %
    18:00Облачно с прояснениями+19°C51 %740 мм2.9 м/с40 %
    21:00Облачно с прояснениями+17°C67 %741 мм2.2 м/с34 %
Мы используем cookies
Соглашаюсь